sensor_id;sensor_type;location;lat;lon;timestamp;P1;durP1;ratioP1;P2;durP2;ratioP2
9809;SDS011;4944;52.514;13.192;2023-12-20T00:00:20;8.50;;;7.60;;
9809;SDS011;4944;52.514;13.192;2023-12-20T00:02:47;8.30;;;7.27;;
9809;SDS011;4944;52.514;13.192;2023-12-20T00:05:14;7.20;;;6.50;;
9809;SDS011;4944;52.514;13.192;2023-12-20T00:07:41;7.57;;;6.70;;
9809;SDS011;4944;52.514;13.192;2023-12-20T00:10:08;7.40;;;6.70;;
9809;SDS011;4944;52.514;13.192;2023-12-20T00:12:39;7.40;;;6.80;;
9809;SDS011;4944;52.514;13.192;2023-12-20T00:15:06;7.20;;;6.50;;
9809;SDS011;4944;52.514;13.192;2023-12-20T00:17:33;7.10;;;6.40;;
9809;SDS011;4944;52.514;13.192;2023-12-20T00:20:01;6.93;;;6.27;;
9809;SDS011;4944;52.514;13.192;2023-12-20T00:22:27;7.70;;;7.00;;
9809;SDS011;4944;52.514;13.192;2023-12-20T00:24:54;7.70;;;7.00;;
9809;SDS011;4944;52.514;13.192;2023-12-20T00:27:21;7.90;;;7.03;;
9809;SDS011;4944;52.514;13.192;2023-12-20T00:29:50;7.50;;;6.83;;
9809;SDS011;4944;52.514;13.192;2023-12-20T00:32:16;7.47;;;6.60;;
9809;SDS011;4944;52.514;13.192;2023-12-20T00:34:44;7.63;;;6.93;;
9809;SDS011;4944;52.514;13.192;2023-12-20T00:37:11;7.23;;;6.60;;
9809;SDS011;4944;52.514;13.192;2023-12-20T00:39:38;7.30;;;6.60;;
9809;SDS011;4944;52.514;13.192;2023-12-20T00:42:05;6.93;;;6.23;;
9809;SDS011;4944;52.514;13.192;2023-12-20T00:44:32;7.37;;;6.73;;
9809;SDS011;4944;52.514;13.192;2023-12-20T00:47:00;6.93;;;6.33;;
9809;SDS011;4944;52.514;13.192;2023-12-20T00:49:27;6.97;;;6.33;;
9809;SDS011;4944;52.514;13.192;2023-12-20T00:51:54;7.70;;;7.00;;
9809;SDS011;4944;52.514;13.192;2023-12-20T00:54:20;7.60;;;6.90;;
9809;SDS011;4944;52.514;13.192;2023-12-20T00:56:47;7.53;;;6.83;;
9809;SDS011;4944;52.514;13.192;2023-12-20T00:59:15;7.30;;;6.60;;
9809;SDS011;4944;52.514;13.192;2023-12-20T01:01:42;6.90;;;6.30;;
9809;SDS011;4944;52.514;13.192;2023-12-20T01:04:10;7.60;;;6.80;;
9809;SDS011;4944;52.514;13.192;2023-12-20T01:06:37;7.50;;;6.83;;
9809;SDS011;4944;52.514;13.192;2023-12-20T01:09:04;8.00;;;7.20;;
9809;SDS011;4944;52.514;13.192;2023-12-20T01:11:31;7.57;;;6.87;;
9809;SDS011;4944;52.514;13.192;2023-12-20T01:13:58;7.67;;;6.97;;
9809;SDS011;4944;52.514;13.192;2023-12-20T01:16:25;7.97;;;6.87;;
9809;SDS011;4944;52.514;13.192;2023-12-20T01:18:51;7.03;;;6.43;;
9809;SDS011;4944;52.514;13.192;2023-12-20T01:21:20;7.60;;;6.90;;
9809;SDS011;4944;52.514;13.192;2023-12-20T01:23:46;8.50;;;7.60;;
9809;SDS011;4944;52.514;13.192;2023-12-20T01:26:14;8.03;;;7.23;;
9809;SDS011;4944;52.514;13.192;2023-12-20T01:28:41;7.53;;;6.83;;
9809;SDS011;4944;52.514;13.192;2023-12-20T01:31:08;7.53;;;6.83;;
9809;SDS011;4944;52.514;13.192;2023-12-20T01:33:35;7.20;;;6.60;;
9809;SDS011;4944;52.514;13.192;2023-12-20T01:36:02;7.57;;;6.73;;
9809;SDS011;4944;52.514;13.192;2023-12-20T01:38:31;6.87;;;6.23;;
9809;SDS011;4944;52.514;13.192;2023-12-20T01:40:58;7.77;;;7.00;;
9809;SDS011;4944;52.514;13.192;2023-12-20T01:43:25;7.47;;;6.80;;
9809;SDS011;4944;52.514;13.192;2023-12-20T01:45:52;9.67;;;6.37;;
9809;SDS011;4944;52.514;13.192;2023-12-20T01:48:21;6.67;;;6.07;;
9809;SDS011;4944;52.514;13.192;2023-12-20T01:50:48;7.07;;;6.47;;
9809;SDS011;4944;52.514;13.192;2023-12-20T01:53:15;7.33;;;6.73;;
9809;SDS011;4944;52.514;13.192;2023-12-20T01:55:44;7.67;;;6.90;;
9809;SDS011;4944;52.514;13.192;2023-12-20T01:58:12;7.93;;;7.10;;
9809;SDS011;4944;52.514;13.192;2023-12-20T02:00:39;7.93;;;7.03;;
9809;SDS011;4944;52.514;13.192;2023-12-20T02:03:06;7.90;;;7.13;;
9809;SDS011;4944;52.514;13.192;2023-12-20T02:05:34;7.90;;;7.20;;
9809;SDS011;4944;52.514;13.192;2023-12-20T02:08:02;7.43;;;6.63;;
9809;SDS011;4944;52.514;13.192;2023-12-20T02:10:30;7.60;;;6.90;;
9809;SDS011;4944;52.514;13.192;2023-12-20T02:12:59;8.07;;;7.27;;
9809;SDS011;4944;52.514;13.192;2023-12-20T02:15:26;8.23;;;7.43;;
9809;SDS011;4944;52.514;13.192;2023-12-20T02:17:53;9.00;;;7.53;;
9809;SDS011;4944;52.514;13.192;2023-12-20T02:20:20;8.17;;;7.37;;
9809;SDS011;4944;52.514;13.192;2023-12-20T02:22:48;8.47;;;7.53;;
9809;SDS011;4944;52.514;13.192;2023-12-20T02:25:15;8.37;;;7.50;;
9809;SDS011;4944;52.514;13.192;2023-12-20T02:27:42;8.93;;;8.03;;
9809;SDS011;4944;52.514;13.192;2023-12-20T02:30:10;8.77;;;7.87;;
9809;SDS011;4944;52.514;13.192;2023-12-20T02:32:37;8.87;;;7.97;;
9809;SDS011;4944;52.514;13.192;2023-12-20T02:35:04;9.57;;;7.83;;
9809;SDS011;4944;52.514;13.192;2023-12-20T02:37:32;8.13;;;7.33;;
9809;SDS011;4944;52.514;13.192;2023-12-20T02:40:00;9.00;;;7.97;;
9809;SDS011;4944;52.514;13.192;2023-12-20T02:42:29;9.20;;;7.90;;
9809;SDS011;4944;52.514;13.192;2023-12-20T02:44:56;7.93;;;7.13;;
9809;SDS011;4944;52.514;13.192;2023-12-20T02:47:23;8.40;;;7.03;;
9809;SDS011;4944;52.514;13.192;2023-12-20T02:49:50;8.63;;;7.20;;
9809;SDS011;4944;52.514;13.192;2023-12-20T02:52:17;7.67;;;6.87;;
9809;SDS011;4944;52.514;13.192;2023-12-20T02:54:44;7.50;;;6.67;;
9809;SDS011;4944;52.514;13.192;2023-12-20T02:57:13;8.27;;;6.70;;
9809;SDS011;4944;52.514;13.192;2023-12-20T02:59:39;7.20;;;6.50;;
9809;SDS011;4944;52.514;13.192;2023-12-20T03:02:06;6.60;;;5.83;;
9809;SDS011;4944;52.514;13.192;2023-12-20T03:04:33;6.30;;;5.67;;
9809;SDS011;4944;52.514;13.192;2023-12-20T03:07:00;9.07;;;5.90;;
9809;SDS011;4944;52.514;13.192;2023-12-20T03:09:27;6.83;;;5.20;;
9809;SDS011;4944;52.514;13.192;2023-12-20T03:11:54;7.70;;;4.73;;
9809;SDS011;4944;52.514;13.192;2023-12-20T03:14:22;7.73;;;5.10;;
9809;SDS011;4944;52.514;13.192;2023-12-20T03:16:49;6.90;;;4.60;;
9809;SDS011;4944;52.514;13.192;2023-12-20T03:19:17;5.20;;;4.20;;
9809;SDS011;4944;52.514;13.192;2023-12-20T03:21:44;6.60;;;4.50;;
9809;SDS011;4944;52.514;13.192;2023-12-20T03:24:11;6.60;;;3.80;;
9809;SDS011;4944;52.514;13.192;2023-12-20T03:26:38;4.53;;;3.73;;
9809;SDS011;4944;52.514;13.192;2023-12-20T03:29:05;8.50;;;3.73;;
9809;SDS011;4944;52.514;13.192;2023-12-20T03:31:33;5.10;;;3.17;;
9809;SDS011;4944;52.514;13.192;2023-12-20T03:34:00;5.67;;;3.40;;
9809;SDS011;4944;52.514;13.192;2023-12-20T03:36:27;5.73;;;3.17;;
9809;SDS011;4944;52.514;13.192;2023-12-20T03:38:54;6.30;;;3.40;;
9809;SDS011;4944;52.514;13.192;2023-12-20T03:41:20;4.53;;;2.80;;
9809;SDS011;4944;52.514;13.192;2023-12-20T03:43:47;5.13;;;3.00;;
9809;SDS011;4944;52.514;13.192;2023-12-20T03:46:14;7.37;;;2.97;;
9809;SDS011;4944;52.514;13.192;2023-12-20T03:48:42;8.30;;;2.97;;
9809;SDS011;4944;52.514;13.192;2023-12-20T03:51:09;9.20;;;3.10;;
9809;SDS011;4944;52.514;13.192;2023-12-20T03:53:37;5.47;;;2.63;;
9809;SDS011;4944;52.514;13.192;2023-12-20T03:56:05;4.67;;;2.53;;
9809;SDS011;4944;52.514;13.192;2023-12-20T03:58:32;7.07;;;3.00;;
9809;SDS011;4944;52.514;13.192;2023-12-20T04:00:59;4.40;;;2.50;;
9809;SDS011;4944;52.514;13.192;2023-12-20T04:03:26;4.70;;;2.70;;
9809;SDS011;4944;52.514;13.192;2023-12-20T04:05:54;5.43;;;2.37;;
9809;SDS011;4944;52.514;13.192;2023-12-20T04:08:21;5.60;;;2.30;;
9809;SDS011;4944;52.514;13.192;2023-12-20T04:10:48;5.83;;;2.53;;
9809;SDS011;4944;52.514;13.192;2023-12-20T04:13:15;3.97;;;2.30;;
9809;SDS011;4944;52.514;13.192;2023-12-20T04:15:42;4.40;;;2.13;;
9809;SDS011;4944;52.514;13.192;2023-12-20T04:18:09;6.33;;;2.20;;
9809;SDS011;4944;52.514;13.192;2023-12-20T04:20:36;5.10;;;2.03;;
9809;SDS011;4944;52.514;13.192;2023-12-20T04:23:04;6.00;;;2.30;;
9809;SDS011;4944;52.514;13.192;2023-12-20T04:25:31;6.20;;;2.10;;
9809;SDS011;4944;52.514;13.192;2023-12-20T04:27:58;7.93;;;2.33;;
9809;SDS011;4944;52.514;13.192;2023-12-20T04:30:25;5.67;;;2.07;;
9809;SDS011;4944;52.514;13.192;2023-12-20T04:32:51;4.83;;;2.20;;
9809;SDS011;4944;52.514;13.192;2023-12-20T04:35:18;5.40;;;2.03;;
9809;SDS011;4944;52.514;13.192;2023-12-20T04:37:45;7.43;;;2.40;;
9809;SDS011;4944;52.514;13.192;2023-12-20T04:40:15;6.20;;;1.83;;
9809;SDS011;4944;52.514;13.192;2023-12-20T04:42:42;4.93;;;2.20;;
9809;SDS011;4944;52.514;13.192;2023-12-20T04:45:09;4.10;;;2.10;;
9809;SDS011;4944;52.514;13.192;2023-12-20T04:47:38;7.23;;;2.30;;
9809;SDS011;4944;52.514;13.192;2023-12-20T04:50:05;4.63;;;2.00;;
9809;SDS011;4944;52.514;13.192;2023-12-20T04:52:33;4.60;;;1.97;;
9809;SDS011;4944;52.514;13.192;2023-12-20T04:55:00;6.47;;;2.00;;
9809;SDS011;4944;52.514;13.192;2023-12-20T04:57:28;5.60;;;1.80;;
9809;SDS011;4944;52.514;13.192;2023-12-20T04:59:55;2.83;;;1.60;;
9809;SDS011;4944;52.514;13.192;2023-12-20T05:02:22;5.70;;;1.80;;
9809;SDS011;4944;52.514;13.192;2023-12-20T05:04:49;4.20;;;1.97;;
9809;SDS011;4944;52.514;13.192;2023-12-20T05:07:15;4.27;;;1.90;;
9809;SDS011;4944;52.514;13.192;2023-12-20T05:09:42;6.77;;;1.87;;
9809;SDS011;4944;52.514;13.192;2023-12-20T05:12:09;6.27;;;1.80;;
9809;SDS011;4944;52.514;13.192;2023-12-20T05:14:37;6.43;;;1.53;;
9809;SDS011;4944;52.514;13.192;2023-12-20T05:17:04;8.97;;;1.97;;
9809;SDS011;4944;52.514;13.192;2023-12-20T05:19:31;6.43;;;1.73;;
9809;SDS011;4944;52.514;13.192;2023-12-20T05:22:00;7.07;;;2.00;;
9809;SDS011;4944;52.514;13.192;2023-12-20T05:24:27;5.67;;;1.43;;
9809;SDS011;4944;52.514;13.192;2023-12-20T05:26:54;4.23;;;1.60;;
9809;SDS011;4944;52.514;13.192;2023-12-20T05:29:21;5.87;;;1.90;;
9809;SDS011;4944;52.514;13.192;2023-12-20T05:31:49;9.67;;;2.00;;
9809;SDS011;4944;52.514;13.192;2023-12-20T05:34:16;6.07;;;1.80;;
9809;SDS011;4944;52.514;13.192;2023-12-20T05:36:43;4.87;;;1.93;;
9809;SDS011;4944;52.514;13.192;2023-12-20T05:39:10;7.83;;;1.73;;
9809;SDS011;4944;52.514;13.192;2023-12-20T05:41:36;3.83;;;1.60;;
9809;SDS011;4944;52.514;13.192;2023-12-20T05:44:03;9.50;;;2.10;;
9809;SDS011;4944;52.514;13.192;2023-12-20T05:46:30;5.60;;;1.60;;
9809;SDS011;4944;52.514;13.192;2023-12-20T05:48:59;4.30;;;1.93;;
9809;SDS011;4944;52.514;13.192;2023-12-20T05:51:26;9.70;;;2.00;;
9809;SDS011;4944;52.514;13.192;2023-12-20T05:53:53;4.73;;;1.50;;
9809;SDS011;4944;52.514;13.192;2023-12-20T05:56:19;6.20;;;1.80;;
9809;SDS011;4944;52.514;13.192;2023-12-20T05:58:47;6.43;;;1.80;;
9809;SDS011;4944;52.514;13.192;2023-12-20T06:01:14;2.93;;;1.47;;
9809;SDS011;4944;52.514;13.192;2023-12-20T06:03:42;3.90;;;1.60;;
9809;SDS011;4944;52.514;13.192;2023-12-20T06:06:10;5.60;;;1.60;;
9809;SDS011;4944;52.514;13.192;2023-12-20T06:08:37;5.23;;;1.47;;
9809;SDS011;4944;52.514;13.192;2023-12-20T06:11:04;10.10;;;1.70;;
9809;SDS011;4944;52.514;13.192;2023-12-20T06:13:31;10.13;;;1.80;;
9809;SDS011;4944;52.514;13.192;2023-12-20T06:15:58;4.90;;;1.83;;
9809;SDS011;4944;52.514;13.192;2023-12-20T06:18:25;5.60;;;1.50;;
9809;SDS011;4944;52.514;13.192;2023-12-20T06:20:52;5.80;;;1.73;;
9809;SDS011;4944;52.514;13.192;2023-12-20T06:23:20;2.97;;;1.67;;
9809;SDS011;4944;52.514;13.192;2023-12-20T06:25:47;4.43;;;1.70;;
9809;SDS011;4944;52.514;13.192;2023-12-20T06:28:14;5.97;;;1.60;;
9809;SDS011;4944;52.514;13.192;2023-12-20T06:30:41;7.93;;;1.97;;
9809;SDS011;4944;52.514;13.192;2023-12-20T06:33:08;4.80;;;1.70;;
9809;SDS011;4944;52.514;13.192;2023-12-20T06:35:36;6.50;;;1.80;;
9809;SDS011;4944;52.514;13.192;2023-12-20T06:38:03;5.27;;;1.67;;
9809;SDS011;4944;52.514;13.192;2023-12-20T06:40:30;6.63;;;1.70;;
9809;SDS011;4944;52.514;13.192;2023-12-20T06:42:57;6.07;;;1.73;;
9809;SDS011;4944;52.514;13.192;2023-12-20T06:45:25;4.23;;;2.07;;
9809;SDS011;4944;52.514;13.192;2023-12-20T06:47:51;5.57;;;1.93;;
9809;SDS011;4944;52.514;13.192;2023-12-20T06:50:19;6.73;;;2.00;;
9809;SDS011;4944;52.514;13.192;2023-12-20T06:52:46;6.07;;;1.80;;
9809;SDS011;4944;52.514;13.192;2023-12-20T06:55:13;5.87;;;1.90;;
9809;SDS011;4944;52.514;13.192;2023-12-20T06:57:43;8.90;;;1.90;;
9809;SDS011;4944;52.514;13.192;2023-12-20T07:00:11;4.60;;;1.60;;
9809;SDS011;4944;52.514;13.192;2023-12-20T07:02:38;4.17;;;2.10;;
9809;SDS011;4944;52.514;13.192;2023-12-20T07:05:05;4.17;;;1.67;;
9809;SDS011;4944;52.514;13.192;2023-12-20T07:07:33;9.10;;;2.37;;
9809;SDS011;4944;52.514;13.192;2023-12-20T07:10:00;4.17;;;1.90;;
9809;SDS011;4944;52.514;13.192;2023-12-20T07:12:26;3.57;;;2.10;;
9809;SDS011;4944;52.514;13.192;2023-12-20T07:14:55;7.50;;;2.17;;
9809;SDS011;4944;52.514;13.192;2023-12-20T07:17:22;4.43;;;2.27;;
9809;SDS011;4944;52.514;13.192;2023-12-20T07:19:49;6.63;;;2.43;;
9809;SDS011;4944;52.514;13.192;2023-12-20T07:22:15;7.40;;;1.90;;
9809;SDS011;4944;52.514;13.192;2023-12-20T07:24:42;6.77;;;1.83;;
9809;SDS011;4944;52.514;13.192;2023-12-20T07:27:09;5.20;;;1.60;;
9809;SDS011;4944;52.514;13.192;2023-12-20T07:29:36;5.17;;;2.10;;
9809;SDS011;4944;52.514;13.192;2023-12-20T07:32:05;6.73;;;2.07;;
9809;SDS011;4944;52.514;13.192;2023-12-20T07:34:33;7.53;;;2.23;;
9809;SDS011;4944;52.514;13.192;2023-12-20T07:37:00;8.83;;;2.27;;
9809;SDS011;4944;52.514;13.192;2023-12-20T07:39:27;6.03;;;1.87;;
9809;SDS011;4944;52.514;13.192;2023-12-20T07:41:54;5.87;;;1.70;;
9809;SDS011;4944;52.514;13.192;2023-12-20T07:44:21;5.73;;;1.97;;
9809;SDS011;4944;52.514;13.192;2023-12-20T07:46:48;6.77;;;2.10;;
9809;SDS011;4944;52.514;13.192;2023-12-20T07:49:16;5.67;;;2.00;;
9809;SDS011;4944;52.514;13.192;2023-12-20T07:51:43;8.83;;;2.20;;
9809;SDS011;4944;52.514;13.192;2023-12-20T07:54:10;2.27;;;1.30;;
9809;SDS011;4944;52.514;13.192;2023-12-20T07:56:37;3.67;;;1.47;;
9809;SDS011;4944;52.514;13.192;2023-12-20T07:59:05;4.50;;;1.53;;
9809;SDS011;4944;52.514;13.192;2023-12-20T08:01:31;4.10;;;1.50;;
9809;SDS011;4944;52.514;13.192;2023-12-20T08:03:58;6.67;;;1.50;;
9809;SDS011;4944;52.514;13.192;2023-12-20T08:06:27;3.73;;;1.50;;
9809;SDS011;4944;52.514;13.192;2023-12-20T08:08:53;7.13;;;1.73;;
9809;SDS011;4944;52.514;13.192;2023-12-20T08:11:20;6.73;;;1.93;;
9809;SDS011;4944;52.514;13.192;2023-12-20T08:13:47;2.70;;;1.40;;
9809;SDS011;4944;52.514;13.192;2023-12-20T08:16:14;5.43;;;1.60;;
9809;SDS011;4944;52.514;13.192;2023-12-20T08:18:42;3.70;;;1.90;;
9809;SDS011;4944;52.514;13.192;2023-12-20T08:21:09;4.90;;;2.03;;
9809;SDS011;4944;52.514;13.192;2023-12-20T08:23:38;7.37;;;1.60;;
9809;SDS011;4944;52.514;13.192;2023-12-20T08:26:05;6.43;;;1.83;;
9809;SDS011;4944;52.514;13.192;2023-12-20T08:28:32;3.37;;;1.60;;
9809;SDS011;4944;52.514;13.192;2023-12-20T08:30:58;4.93;;;1.87;;
9809;SDS011;4944;52.514;13.192;2023-12-20T08:33:25;6.30;;;2.00;;
9809;SDS011;4944;52.514;13.192;2023-12-20T08:35:52;7.07;;;1.80;;
9809;SDS011;4944;52.514;13.192;2023-12-20T08:38:19;6.27;;;1.87;;
9809;SDS011;4944;52.514;13.192;2023-12-20T08:40:47;4.70;;;1.80;;
9809;SDS011;4944;52.514;13.192;2023-12-20T08:43:14;7.10;;;2.10;;
9809;SDS011;4944;52.514;13.192;2023-12-20T08:45:41;6.97;;;1.73;;
9809;SDS011;4944;52.514;13.192;2023-12-20T08:48:08;4.73;;;1.30;;
9809;SDS011;4944;52.514;13.192;2023-12-20T08:50:35;2.40;;;1.33;;
9809;SDS011;4944;52.514;13.192;2023-12-20T08:53:02;5.07;;;1.83;;
9809;SDS011;4944;52.514;13.192;2023-12-20T08:55:29;6.33;;;1.60;;
9809;SDS011;4944;52.514;13.192;2023-12-20T08:57:58;6.03;;;2.07;;
9809;SDS011;4944;52.514;13.192;2023-12-20T09:00:25;5.47;;;2.30;;
9809;SDS011;4944;52.514;13.192;2023-12-20T09:02:52;10.40;;;3.30;;
9809;SDS011;4944;52.514;13.192;2023-12-20T09:05:20;10.23;;;3.17;;
9809;SDS011;4944;52.514;13.192;2023-12-20T09:07:47;5.33;;;1.90;;
9809;SDS011;4944;52.514;13.192;2023-12-20T09:10:14;6.37;;;1.90;;
9809;SDS011;4944;52.514;13.192;2023-12-20T09:12:41;4.63;;;1.63;;
9809;SDS011;4944;52.514;13.192;2023-12-20T09:15:09;6.53;;;2.03;;
9809;SDS011;4944;52.514;13.192;2023-12-20T09:17:36;5.20;;;1.77;;
9809;SDS011;4944;52.514;13.192;2023-12-20T09:20:03;3.13;;;1.87;;
9809;SDS011;4944;52.514;13.192;2023-12-20T09:22:33;3.83;;;1.70;;
9809;SDS011;4944;52.514;13.192;2023-12-20T09:25:00;4.47;;;1.70;;
9809;SDS011;4944;52.514;13.192;2023-12-20T09:27:27;5.43;;;2.43;;
9809;SDS011;4944;52.514;13.192;2023-12-20T09:29:54;5.77;;;1.60;;
9809;SDS011;4944;52.514;13.192;2023-12-20T09:32:22;4.70;;;1.53;;
9809;SDS011;4944;52.514;13.192;2023-12-20T09:34:49;5.57;;;1.50;;
9809;SDS011;4944;52.514;13.192;2023-12-20T09:37:15;4.87;;;1.60;;
9809;SDS011;4944;52.514;13.192;2023-12-20T09:39:42;4.50;;;1.50;;
9809;SDS011;4944;52.514;13.192;2023-12-20T09:42:10;6.77;;;1.73;;
9809;SDS011;4944;52.514;13.192;2023-12-20T09:44:43;4.77;;;1.60;;
9809;SDS011;4944;52.514;13.192;2023-12-20T09:47:10;6.70;;;1.70;;
9809;SDS011;4944;52.514;13.192;2023-12-20T09:49:39;10.37;;;1.93;;
9809;SDS011;4944;52.514;13.192;2023-12-20T09:52:07;6.50;;;1.67;;
9809;SDS011;4944;52.514;13.192;2023-12-20T09:54:35;7.20;;;1.80;;
9809;SDS011;4944;52.514;13.192;2023-12-20T09:57:02;4.93;;;1.90;;
9809;SDS011;4944;52.514;13.192;2023-12-20T09:59:30;4.07;;;1.90;;
9809;SDS011;4944;52.514;13.192;2023-12-20T10:01:57;7.17;;;2.13;;
9809;SDS011;4944;52.514;13.192;2023-12-20T10:04:28;4.10;;;1.87;;
9809;SDS011;4944;52.514;13.192;2023-12-20T10:07:02;10.27;;;2.20;;
9809;SDS011;4944;52.514;13.192;2023-12-20T10:09:30;4.10;;;2.17;;
9809;SDS011;4944;52.514;13.192;2023-12-20T10:11:58;6.17;;;2.03;;
9809;SDS011;4944;52.514;13.192;2023-12-20T10:14:25;6.17;;;2.17;;
9809;SDS011;4944;52.514;13.192;2023-12-20T10:16:52;3.83;;;1.70;;
9809;SDS011;4944;52.514;13.192;2023-12-20T10:19:20;4.47;;;1.83;;
9809;SDS011;4944;52.514;13.192;2023-12-20T10:21:47;4.77;;;2.27;;
9809;SDS011;4944;52.514;13.192;2023-12-20T10:24:18;4.77;;;1.40;;
9809;SDS011;4944;52.514;13.192;2023-12-20T10:26:44;7.53;;;1.73;;
9809;SDS011;4944;52.514;13.192;2023-12-20T10:29:11;5.83;;;2.03;;
9809;SDS011;4944;52.514;13.192;2023-12-20T10:31:38;5.03;;;2.00;;
9809;SDS011;4944;52.514;13.192;2023-12-20T10:34:05;4.20;;;1.87;;
9809;SDS011;4944;52.514;13.192;2023-12-20T10:36:32;5.07;;;1.87;;
9809;SDS011;4944;52.514;13.192;2023-12-20T10:39:01;7.57;;;2.40;;
9809;SDS011;4944;52.514;13.192;2023-12-20T10:41:32;6.63;;;2.17;;
9809;SDS011;4944;52.514;13.192;2023-12-20T10:44:00;3.97;;;1.87;;
9809;SDS011;4944;52.514;13.192;2023-12-20T10:46:29;5.73;;;2.07;;
9809;SDS011;4944;52.514;13.192;2023-12-20T10:48:57;3.97;;;1.83;;
9809;SDS011;4944;52.514;13.192;2023-12-20T10:51:25;7.40;;;2.00;;
9809;SDS011;4944;52.514;13.192;2023-12-20T10:53:54;5.87;;;1.73;;
9809;SDS011;4944;52.514;13.192;2023-12-20T10:56:22;9.60;;;2.30;;
9809;SDS011;4944;52.514;13.192;2023-12-20T10:58:51;4.73;;;1.70;;
9809;SDS011;4944;52.514;13.192;2023-12-20T11:01:18;4.63;;;1.90;;
9809;SDS011;4944;52.514;13.192;2023-12-20T11:03:48;5.23;;;2.07;;
9809;SDS011;4944;52.514;13.192;2023-12-20T11:06:19;7.93;;;1.97;;
9809;SDS011;4944;52.514;13.192;2023-12-20T11:08:58;4.93;;;2.07;;
9809;SDS011;4944;52.514;13.192;2023-12-20T11:11:35;4.03;;;1.73;;
9809;SDS011;4944;52.514;13.192;2023-12-20T11:14:13;9.13;;;1.93;;
9809;SDS011;4944;52.514;13.192;2023-12-20T11:16:43;4.60;;;2.07;;
9809;SDS011;4944;52.514;13.192;2023-12-20T11:19:11;3.80;;;2.07;;
9809;SDS011;4944;52.514;13.192;2023-12-20T11:21:40;4.17;;;1.97;;
9809;SDS011;4944;52.514;13.192;2023-12-20T11:24:07;7.33;;;1.87;;
9809;SDS011;4944;52.514;13.192;2023-12-20T11:26:34;5.03;;;2.20;;
9809;SDS011;4944;52.514;13.192;2023-12-20T11:32:03;8.40;;;2.23;;
9809;SDS011;4944;52.514;13.192;2023-12-20T11:34:51;6.57;;;1.70;;
9809;SDS011;4944;52.514;13.192;2023-12-20T11:37:20;6.47;;;1.90;;
9809;SDS011;4944;52.514;13.192;2023-12-20T11:39:53;6.97;;;1.93;;
9809;SDS011;4944;52.514;13.192;2023-12-20T11:42:21;6.93;;;2.20;;
9809;SDS011;4944;52.514;13.192;2023-12-20T11:44:50;4.00;;;1.73;;
9809;SDS011;4944;52.514;13.192;2023-12-20T11:47:17;5.63;;;2.27;;
9809;SDS011;4944;52.514;13.192;2023-12-20T11:49:46;5.70;;;1.83;;
9809;SDS011;4944;52.514;13.192;2023-12-20T11:52:14;6.10;;;1.77;;
9809;SDS011;4944;52.514;13.192;2023-12-20T11:54:41;6.03;;;1.90;;
9809;SDS011;4944;52.514;13.192;2023-12-20T11:57:07;7.50;;;1.97;;
9809;SDS011;4944;52.514;13.192;2023-12-20T11:59:36;5.60;;;2.00;;
9809;SDS011;4944;52.514;13.192;2023-12-20T12:02:04;2.57;;;1.60;;
9809;SDS011;4944;52.514;13.192;2023-12-20T12:04:31;5.47;;;1.80;;
9809;SDS011;4944;52.514;13.192;2023-12-20T12:06:58;3.83;;;1.67;;
9809;SDS011;4944;52.514;13.192;2023-12-20T12:09:25;3.63;;;1.40;;
9809;SDS011;4944;52.514;13.192;2023-12-20T12:11:52;3.83;;;1.50;;
9809;SDS011;4944;52.514;13.192;2023-12-20T12:14:19;5.77;;;2.00;;
9809;SDS011;4944;52.514;13.192;2023-12-20T12:16:46;5.37;;;1.90;;
9809;SDS011;4944;52.514;13.192;2023-12-20T12:19:26;6.57;;;1.93;;
9809;SDS011;4944;52.514;13.192;2023-12-20T12:22:03;4.17;;;1.80;;
9809;SDS011;4944;52.514;13.192;2023-12-20T12:24:32;4.93;;;1.80;;
9809;SDS011;4944;52.514;13.192;2023-12-20T12:26:59;3.50;;;1.80;;
9809;SDS011;4944;52.514;13.192;2023-12-20T12:29:26;5.97;;;1.60;;
9809;SDS011;4944;52.514;13.192;2023-12-20T12:31:53;2.97;;;1.80;;
9809;SDS011;4944;52.514;13.192;2023-12-20T12:34:20;2.77;;;1.97;;
9809;SDS011;4944;52.514;13.192;2023-12-20T12:36:49;4.80;;;1.93;;
9809;SDS011;4944;52.514;13.192;2023-12-20T12:39:17;4.83;;;2.20;;
9809;SDS011;4944;52.514;13.192;2023-12-20T12:41:44;3.87;;;1.90;;
9809;SDS011;4944;52.514;13.192;2023-12-20T12:44:11;8.40;;;2.20;;
9809;SDS011;4944;52.514;13.192;2023-12-20T12:46:38;4.53;;;2.20;;
9809;SDS011;4944;52.514;13.192;2023-12-20T12:49:05;5.23;;;2.40;;
9809;SDS011;4944;52.514;13.192;2023-12-20T12:51:31;4.97;;;2.03;;
9809;SDS011;4944;52.514;13.192;2023-12-20T12:54:00;4.23;;;2.37;;
9809;SDS011;4944;52.514;13.192;2023-12-20T12:56:27;4.83;;;2.10;;
9809;SDS011;4944;52.514;13.192;2023-12-20T12:58:54;5.00;;;2.30;;
9809;SDS011;4944;52.514;13.192;2023-12-20T13:01:21;4.20;;;2.20;;
9809;SDS011;4944;52.514;13.192;2023-12-20T13:03:47;6.30;;;2.23;;
9809;SDS011;4944;52.514;13.192;2023-12-20T13:06:14;4.97;;;2.03;;
9809;SDS011;4944;52.514;13.192;2023-12-20T13:08:41;7.33;;;2.00;;
9809;SDS011;4944;52.514;13.192;2023-12-20T13:11:12;6.67;;;2.47;;
9809;SDS011;4944;52.514;13.192;2023-12-20T13:13:38;6.07;;;2.70;;
9809;SDS011;4944;52.514;13.192;2023-12-20T13:16:05;8.27;;;3.27;;
9809;SDS011;4944;52.514;13.192;2023-12-20T13:18:32;5.67;;;2.73;;
9809;SDS011;4944;52.514;13.192;2023-12-20T13:20:59;1.60;;;1.50;;
9809;SDS011;4944;52.514;13.192;2023-12-20T13:23:27;2.73;;;1.70;;
9809;SDS011;4944;52.514;13.192;2023-12-20T13:25:53;1.93;;;1.23;;
9809;SDS011;4944;52.514;13.192;2023-12-20T13:28:22;3.57;;;1.27;;
9809;SDS011;4944;52.514;13.192;2023-12-20T13:30:49;1.37;;;0.90;;
9809;SDS011;4944;52.514;13.192;2023-12-20T13:33:15;1.17;;;0.87;;
9809;SDS011;4944;52.514;13.192;2023-12-20T13:35:42;1.43;;;0.90;;
9809;SDS011;4944;52.514;13.192;2023-12-20T13:38:09;2.17;;;0.60;;
9809;SDS011;4944;52.514;13.192;2023-12-20T13:40:38;2.50;;;0.60;;
9809;SDS011;4944;52.514;13.192;2023-12-20T13:43:05;1.13;;;0.80;;
9809;SDS011;4944;52.514;13.192;2023-12-20T13:45:33;1.63;;;0.80;;
9809;SDS011;4944;52.514;13.192;2023-12-20T13:48:01;3.00;;;1.30;;
9809;SDS011;4944;52.514;13.192;2023-12-20T13:50:29;2.93;;;0.90;;
9809;SDS011;4944;52.514;13.192;2023-12-20T13:52:56;3.00;;;1.10;;
9809;SDS011;4944;52.514;13.192;2023-12-20T13:55:23;1.17;;;0.90;;
9809;SDS011;4944;52.514;13.192;2023-12-20T13:57:52;2.00;;;0.80;;
9809;SDS011;4944;52.514;13.192;2023-12-20T14:00:19;1.63;;;1.10;;
9809;SDS011;4944;52.514;13.192;2023-12-20T14:02:47;1.40;;;0.50;;
9809;SDS011;4944;52.514;13.192;2023-12-20T14:05:14;1.97;;;0.73;;
9809;SDS011;4944;52.514;13.192;2023-12-20T14:07:42;0.20;;;0.20;;
9809;SDS011;4944;52.514;13.192;2023-12-20T14:10:10;0.90;;;0.60;;
9809;SDS011;4944;52.514;13.192;2023-12-20T14:12:38;0.83;;;0.30;;
9809;SDS011;4944;52.514;13.192;2023-12-20T14:15:05;0.50;;;0.50;;
9809;SDS011;4944;52.514;13.192;2023-12-20T14:17:35;0.40;;;0.20;;
9809;SDS011;4944;52.514;13.192;2023-12-20T14:20:05;0.50;;;0.40;;
9809;SDS011;4944;52.514;13.192;2023-12-20T14:22:32;0.50;;;0.30;;
9809;SDS011;4944;52.514;13.192;2023-12-20T14:25:00;0.30;;;0.30;;
9809;SDS011;4944;52.514;13.192;2023-12-20T14:27:27;0.30;;;0.30;;
9809;SDS011;4944;52.514;13.192;2023-12-20T14:29:54;0.40;;;0.40;;
9809;SDS011;4944;52.514;13.192;2023-12-20T14:32:21;0.53;;;0.43;;
9809;SDS011;4944;52.514;13.192;2023-12-20T14:34:48;1.97;;;0.50;;
9809;SDS011;4944;52.514;13.192;2023-12-20T14:37:16;0.43;;;0.10;;
9809;SDS011;4944;52.514;13.192;2023-12-20T14:39:43;0.73;;;0.50;;
9809;SDS011;4944;52.514;13.192;2023-12-20T14:42:10;1.17;;;0.40;;
9809;SDS011;4944;52.514;13.192;2023-12-20T14:44:39;0.60;;;0.50;;
9809;SDS011;4944;52.514;13.192;2023-12-20T14:47:06;0.80;;;0.53;;
9809;SDS011;4944;52.514;13.192;2023-12-20T14:49:33;1.77;;;0.90;;
9809;SDS011;4944;52.514;13.192;2023-12-20T14:52:00;0.90;;;0.57;;
9809;SDS011;4944;52.514;13.192;2023-12-20T14:54:29;1.40;;;0.50;;
9809;SDS011;4944;52.514;13.192;2023-12-20T14:56:57;0.70;;;0.70;;
9809;SDS011;4944;52.514;13.192;2023-12-20T14:59:24;1.10;;;0.73;;
9809;SDS011;4944;52.514;13.192;2023-12-20T15:01:51;1.97;;;0.87;;
9809;SDS011;4944;52.514;13.192;2023-12-20T15:04:18;1.97;;;0.80;;